createdAt,value
2019-05-16T00:01:04.398Z,31.94
2019-05-16T00:03:34.836Z,31.82
2019-05-16T00:06:05.099Z,31.56
2019-05-16T00:08:35.327Z,31.66
2019-05-16T00:11:05.955Z,31.94
2019-05-16T00:13:41.792Z,32.15
2019-05-16T00:16:13.406Z,32.03
2019-05-16T00:18:43.555Z,32.70
2019-05-16T00:21:14.321Z,31.87
2019-05-16T00:23:48.319Z,32.41
2019-05-16T00:26:19.724Z,32.55
2019-05-16T00:28:50.134Z,33.40
2019-05-16T00:31:21.368Z,32.74
2019-05-16T00:33:52.245Z,32.32
2019-05-16T00:36:22.499Z,32.23
2019-05-16T00:38:52.658Z,31.95
2019-05-16T00:41:23.697Z,32.53
2019-05-16T00:43:53.859Z,32.65
2019-05-16T00:46:25.272Z,33.02
2019-05-16T00:48:55.426Z,33.19
2019-05-16T00:51:28.637Z,33.15
2019-05-16T00:53:58.972Z,33.39
2019-05-16T00:56:30.524Z,33.60
2019-05-16T00:59:01.653Z,33.95
2019-05-16T01:01:32.824Z,34.69
2019-05-16T01:04:03.495Z,34.24
2019-05-16T01:06:34.729Z,33.71
2019-05-16T01:09:08.644Z,33.18
2019-05-16T01:11:40.559Z,33.11
2019-05-16T01:14:11.721Z,33.19
2019-05-16T01:16:42.892Z,33.06
2019-05-16T01:19:13.021Z,32.45
2019-05-16T01:21:43.929Z,33.25
2019-05-16T01:24:14.059Z,33.12
2019-05-16T01:26:44.272Z,33.17
2019-05-16T01:29:14.513Z,33.65
2019-05-16T01:31:48.390Z,34.00
2019-05-16T01:34:18.282Z,34.05
2019-05-16T01:36:48.662Z,34.04
2019-05-16T01:39:18.950Z,33.87
2019-05-16T01:41:49.533Z,33.60
2019-05-16T01:44:20.985Z,33.25
2019-05-16T01:46:51.426Z,33.55
2019-05-16T01:49:22.015Z,33.49
2019-05-16T01:51:54.036Z,33.63
2019-05-16T01:54:25.657Z,33.97
2019-05-16T01:56:59.292Z,33.40
2019-05-16T01:59:28.961Z,33.87
2019-05-16T02:02:00.882Z,33.86
2019-05-16T02:04:32.148Z,34.03
2019-05-16T02:07:03.573Z,34.03
2019-05-16T02:09:33.750Z,34.72
2019-05-16T02:12:04.403Z,34.72
2019-05-16T02:14:34.563Z,34.25
2019-05-16T02:17:04.741Z,34.12
2019-05-16T02:19:38.354Z,34.05
2019-05-16T02:22:09.113Z,34.02
2019-05-16T02:24:39.250Z,34.11
2019-05-16T02:27:11.132Z,34.58
2019-05-16T02:29:41.259Z,34.66
2019-05-16T02:32:11.882Z,34.65
2019-05-16T02:34:43.563Z,34.77
2019-05-16T02:37:24.070Z,34.49
2019-05-16T02:39:46.570Z,34.43
2019-05-16T02:42:21.179Z,35.08
2019-05-16T02:44:51.265Z,35.81
2019-05-16T02:47:22.132Z,35.04
2019-05-16T02:49:52.262Z,34.96
2019-05-16T02:52:24.136Z,34.63
2019-05-16T02:54:55.787Z,34.95
2019-05-16T02:57:26.447Z,34.72
2019-05-16T02:59:56.916Z,34.54
2019-05-16T03:02:31.029Z,34.25
2019-05-16T03:05:00.970Z,34.76
2019-05-16T03:07:41.638Z,34.75
2019-05-16T03:10:06.137Z,34.91
2019-05-16T03:12:41.114Z,34.89
2019-05-16T03:15:11.196Z,35.71
2019-05-16T03:17:43.957Z,35.88
2019-05-16T03:20:14.507Z,35.22
2019-05-16T03:22:52.117Z,34.79
2019-05-16T03:25:23.225Z,34.44
2019-05-16T03:27:53.504Z,34.52
2019-05-16T03:30:24.494Z,35.03
2019-05-16T03:32:55.339Z,34.72
2019-05-16T03:35:25.657Z,34.79
2019-05-16T03:38:00.666Z,35.05
2019-05-16T03:40:31.362Z,35.52
2019-05-16T03:43:01.673Z,35.53
2019-05-16T03:45:32.538Z,35.22
2019-05-16T03:48:03.437Z,35.19
2019-05-16T03:50:34.988Z,35.51
2019-05-16T03:53:06.595Z,35.46
2019-05-16T03:55:40.743Z,35.79
2019-05-16T03:58:11.680Z,36.34
2019-05-16T04:00:54.304Z,36.23
2019-05-16T04:03:28.809Z,36.05
2019-05-16T04:06:01.216Z,35.72
2019-05-16T04:08:33.162Z,35.46
2019-05-16T04:11:03.301Z,35.78
2019-05-16T04:13:33.457Z,35.28
2019-05-16T04:16:05.066Z,34.67
2019-05-16T04:18:35.700Z,35.21
2019-05-16T04:21:05.854Z,35.29
2019-05-16T04:23:36.595Z,36.06
2019-05-16T04:26:06.725Z,35.80
2019-05-16T04:28:40.971Z,35.16
2019-05-16T04:31:10.891Z,34.42
2019-05-16T04:33:42.010Z,34.49
2019-05-16T04:36:13.255Z,35.00
2019-05-16T04:38:46.744Z,34.53
2019-05-16T04:41:16.198Z,35.16
2019-05-16T04:43:50.281Z,34.56
2019-05-16T04:46:21.378Z,35.33
2019-05-16T04:48:51.142Z,35.32
2019-05-16T04:51:22.336Z,35.11
2019-05-16T04:53:53.922Z,34.94
2019-05-16T04:56:25.545Z,34.70
2019-05-16T04:58:55.693Z,35.17
2019-05-16T05:01:26.135Z,34.69
2019-05-16T05:04:06.143Z,34.69
2019-05-16T05:06:31.140Z,34.78
2019-05-16T05:09:03.435Z,34.71
2019-05-16T05:11:33.538Z,34.22
2019-05-16T05:14:04.285Z,34.67
2019-05-16T05:16:34.429Z,34.94
2019-05-16T05:19:04.612Z,33.92
2019-05-16T05:21:34.885Z,34.05
2019-05-16T05:24:05.505Z,33.73
2019-05-16T05:26:35.658Z,33.40
2019-05-16T05:29:05.840Z,33.51
2019-05-16T05:31:43.556Z,34.85
2019-05-16T05:34:10.665Z,33.54
2019-05-16T05:36:41.145Z,34.17
2019-05-16T05:39:15.360Z,33.69
2019-05-16T05:41:46.858Z,33.79
2019-05-16T05:44:20.172Z,32.72
2019-05-16T05:46:51.922Z,32.86
2019-05-16T05:49:22.525Z,32.84
2019-05-16T05:51:54.074Z,32.33
2019-05-16T05:54:25.685Z,32.36
2019-05-16T05:57:00.525Z,32.89
2019-05-16T05:59:30.818Z,32.67
2019-05-16T06:02:02.010Z,32.68
2019-05-16T06:04:36.810Z,33.38
2019-05-16T06:07:11.526Z,33.21
2019-05-16T06:09:56.551Z,33.68
2019-05-16T06:12:30.111Z,32.68
2019-05-16T06:15:07.780Z,32.48
2019-05-16T06:17:34.620Z,33.92
2019-05-16T06:20:05.681Z,33.31
2019-05-16T06:22:36.155Z,32.40
2019-05-16T06:25:06.992Z,32.97
2019-05-16T06:27:37.148Z,32.45
2019-05-16T06:30:11.129Z,32.21
2019-05-16T06:32:41.928Z,32.98
2019-05-16T06:35:12.766Z,32.38
2019-05-16T06:37:43.844Z,33.23
2019-05-16T06:40:14.220Z,33.38
2019-05-16T06:42:52.141Z,33.54
2019-05-16T06:45:33.905Z,32.40
2019-05-16T06:48:10.023Z,32.58
2019-05-16T06:50:51.441Z,32.57
2019-05-16T06:53:23.583Z,33.32
2019-05-16T06:55:53.860Z,33.87
2019-05-16T06:58:26.049Z,33.13
2019-05-16T07:00:59.305Z,32.88
2019-05-16T07:03:30.829Z,32.65
2019-05-16T07:06:01.307Z,32.80
2019-05-16T07:08:31.984Z,33.43
2019-05-16T07:11:11.635Z,33.76
2019-05-16T07:13:43.450Z,33.08
2019-05-16T07:16:13.628Z,33.53
2019-05-16T07:18:44.553Z,33.06
2019-05-16T07:21:15.295Z,32.66
2019-05-16T07:23:47.642Z,31.42
2019-05-16T07:26:20.532Z,30.93
2019-05-16T07:28:51.898Z,31.03
2019-05-16T07:31:22.823Z,30.94
2019-05-16T07:33:54.028Z,30.63
2019-05-16T07:36:24.637Z,30.65
2019-05-16T07:38:54.851Z,31.11
2019-05-16T07:41:25.875Z,29.94
2019-05-16T07:44:00.925Z,29.49
2019-05-16T07:46:32.156Z,29.37
2019-05-16T07:49:02.302Z,30.12
2019-05-16T07:51:40.334Z,29.90
2019-05-16T07:54:11.767Z,29.11
2019-05-16T07:56:44.746Z,28.81
2019-05-16T07:59:17.376Z,29.40
2019-05-16T08:01:53.662Z,29.27
2019-05-16T08:04:21.935Z,28.44
2019-05-16T08:07:14.622Z,28.57
2019-05-16T08:09:44.816Z,28.83
2019-05-16T08:12:14.990Z,28.77
2019-05-16T08:17:21.811Z,28.27
2019-05-16T08:19:54.263Z,28.46
2019-05-16T08:22:24.969Z,28.29
2019-05-16T08:24:55.097Z,28.53
2019-05-16T08:27:26.143Z,27.36
2019-05-16T08:35:23.112Z,27.17
2019-05-16T08:37:54.609Z,26.65
2019-05-16T08:40:24.780Z,26.75
2019-05-16T08:42:56.140Z,27.51
2019-05-16T08:45:31.354Z,27.46
2019-05-16T08:48:04.356Z,25.98
2019-05-16T08:50:05.719Z,28.45
2019-05-16T08:50:35.186Z,25.78
2019-05-16T08:53:07.012Z,25.98
2019-05-16T08:55:43.288Z,26.72
2019-05-16T08:58:22.118Z,27.59
2019-05-16T09:00:55.835Z,26.61
2019-05-16T09:03:26.770Z,27.17
2019-05-16T09:05:56.931Z,27.07
2019-05-16T09:08:28.292Z,27.37
2019-05-16T09:10:31.815Z,27.50
2019-05-16T09:11:09.270Z,27.39
2019-05-16T09:21:07.299Z,28.51
2019-05-16T09:23:38.714Z,28.38
2019-05-16T09:29:47.182Z,27.32
2019-05-16T09:32:21.444Z,28.22
2019-05-16T09:34:49.192Z,28.28
2019-05-16T09:37:20.090Z,27.78
2019-05-16T09:39:51.343Z,27.22
2019-05-16T09:42:21.518Z,27.52
2019-05-16T09:44:51.665Z,27.44
2019-05-16T09:47:24.125Z,27.19
2019-05-16T09:49:54.287Z,27.14
2019-05-16T09:52:24.444Z,27.88
2019-05-16T09:54:54.709Z,26.51
2019-05-16T09:57:27.788Z,27.27
2019-05-16T09:59:57.826Z,25.50
2019-05-16T10:02:29.827Z,25.50
2019-05-16T10:05:02.710Z,25.83
2019-05-16T10:07:38.531Z,25.43
2019-05-16T10:10:10.225Z,25.43
2019-05-16T10:12:41.445Z,26.08
2019-05-16T10:15:12.228Z,25.41
2019-05-16T10:17:42.857Z,25.59
2019-05-16T10:20:16.946Z,25.61
2019-05-16T10:22:50.585Z,25.59
2019-05-16T10:25:19.967Z,25.34
2019-05-16T10:27:50.160Z,25.55
2019-05-16T10:30:20.599Z,24.65
2019-05-16T10:32:51.790Z,24.28
2019-05-16T10:35:23.564Z,24.22
2019-05-16T10:37:58.193Z,23.96
2019-05-16T10:40:32.342Z,24.54
2019-05-16T10:43:02.985Z,25.86
2019-05-16T10:45:33.136Z,24.94
2019-05-16T10:48:04.879Z,24.21
2019-05-16T10:50:36.985Z,24.95
2019-05-16T10:53:32.478Z,24.91
2019-05-16T10:55:40.830Z,24.13
2019-05-16T10:58:11.012Z,24.80
2019-05-16T11:01:07.771Z,24.55
2019-05-16T11:03:18.424Z,24.42
2019-05-16T11:06:01.328Z,24.04
2019-05-16T11:08:20.785Z,23.84
2019-05-16T11:10:51.010Z,24.96
2019-05-16T11:13:21.655Z,24.78
2019-05-16T11:15:51.852Z,24.49
2019-05-16T11:18:22.595Z,25.14
2019-05-16T11:20:58.156Z,23.14
2019-05-16T11:23:31.518Z,24.44
2019-05-16T11:26:03.233Z,23.82
2019-05-16T11:28:36.830Z,25.12
2019-05-16T11:31:07.621Z,25.52
2019-05-16T11:33:40.258Z,24.58
2019-05-16T11:36:16.574Z,24.24
2019-05-16T11:38:49.142Z,23.63
2019-05-16T11:41:19.572Z,23.41
2019-05-16T11:43:51.124Z,24.20
2019-05-16T11:46:21.768Z,26.52
2019-05-16T11:48:56.894Z,24.72
2019-05-16T11:51:27.452Z,23.18
2019-05-16T11:53:59.949Z,23.67
2019-05-16T11:56:31.046Z,22.66
2019-05-16T11:59:01.281Z,21.90
2019-05-16T12:02:21.703Z,21.65
2019-05-16T12:04:59.207Z,22.39
2019-05-16T12:07:44.260Z,22.10
2019-05-16T12:10:16.296Z,22.24
2019-05-16T12:12:56.759Z,22.19
2019-05-16T12:15:41.649Z,21.26
2019-05-16T12:18:12.380Z,21.54
2019-05-16T12:20:43.860Z,21.54
2019-05-16T12:23:16.928Z,22.92
2019-05-16T12:25:47.540Z,21.91
2019-05-16T12:28:18.916Z,22.08
2019-05-16T12:30:49.923Z,22.20
2019-05-16T12:33:20.380Z,21.97
2019-05-16T12:35:52.040Z,22.99
2019-05-16T12:38:24.095Z,21.99
2019-05-16T12:40:56.747Z,21.26
2019-05-16T12:43:44.047Z,21.38
2019-05-16T12:45:59.078Z,21.40
2019-05-16T12:48:32.474Z,21.74
2019-05-16T12:51:13.625Z,21.82
2019-05-16T12:53:47.778Z,22.48
2019-05-16T12:56:19.226Z,22.43
2019-05-16T12:58:53.424Z,21.84
2019-05-16T13:01:30.466Z,22.52
2019-05-16T13:03:55.501Z,23.18
2019-05-16T13:06:27.999Z,22.95
2019-05-16T13:08:58.833Z,23.79
2019-05-16T13:11:29.019Z,24.66
2019-05-16T13:14:06.332Z,23.72
2019-05-16T13:16:31.081Z,24.18
2019-05-16T13:19:02.699Z,23.90
2019-05-16T13:21:38.096Z,24.39
2019-05-16T13:24:07.654Z,24.14
2019-05-16T13:26:37.838Z,25.11
2019-05-16T13:29:08.824Z,24.71
2019-05-16T13:31:39.481Z,23.87
2019-05-16T13:34:09.765Z,24.75
2019-05-16T13:36:44.104Z,24.21
2019-05-16T13:39:17.195Z,22.32
2019-05-16T13:41:47.569Z,22.60
2019-05-16T13:44:22.774Z,22.11
2019-05-16T13:46:50.939Z,22.82
2019-05-16T13:49:22.022Z,22.60
2019-05-16T13:51:52.767Z,21.72
2019-05-16T13:54:22.926Z,21.26
2019-05-16T13:56:53.574Z,21.54
2019-05-16T13:59:23.740Z,21.52
2019-05-16T14:01:57.186Z,21.63
2019-05-16T14:04:26.550Z,22.24
2019-05-16T14:06:59.090Z,22.80
2019-05-16T14:09:30.445Z,23.20
2019-05-16T14:12:01.054Z,23.18
2019-05-16T14:14:38.967Z,23.34
2019-05-16T14:17:14.024Z,23.28
2019-05-16T14:19:40.318Z,23.30
2019-05-16T14:22:10.987Z,23.66
2019-05-16T14:24:42.716Z,23.94
2019-05-16T14:27:13.815Z,24.69
2019-05-16T14:29:47.667Z,26.03
2019-05-16T14:32:19.957Z,24.80
2019-05-16T14:34:51.838Z,24.92
2019-05-16T14:37:26.719Z,26.07
2019-05-16T14:40:00.994Z,26.23
2019-05-16T14:42:30.573Z,26.48
2019-05-16T14:45:11.220Z,26.20
2019-05-16T14:47:37.992Z,26.82
2019-05-16T14:50:13.210Z,27.36
2019-05-16T14:52:42.397Z,27.45
2019-05-16T14:55:18.597Z,28.19
2019-05-16T14:57:48.812Z,27.04
2019-05-16T15:00:19.493Z,27.49
2019-05-16T15:02:53.559Z,27.65
2019-05-16T15:05:27.236Z,27.64
2019-05-16T15:08:00.086Z,28.66
2019-05-16T15:10:32.053Z,28.67
2019-05-16T15:13:07.853Z,28.92
2019-05-16T15:15:39.453Z,29.83
2019-05-16T15:18:10.715Z,29.47
2019-05-16T15:20:46.664Z,29.37
2019-05-16T15:23:17.556Z,30.12
2019-05-16T15:25:55.592Z,29.85
2019-05-16T15:28:30.141Z,30.00
2019-05-16T15:30:58.562Z,30.81
2019-05-16T15:33:29.834Z,30.88
2019-05-16T15:36:00.021Z,31.44
2019-05-16T15:38:31.217Z,31.57
2019-05-16T15:41:01.901Z,31.01
2019-05-16T15:43:32.071Z,31.07
2019-05-16T15:46:03.104Z,30.79
2019-05-16T15:48:33.675Z,31.30
2019-05-16T15:51:09.319Z,30.96
2019-05-16T15:53:44.182Z,31.21
2019-05-16T15:56:17.632Z,31.97
2019-05-16T15:58:47.108Z,33.15
2019-05-16T16:01:19.353Z,33.05
2019-05-16T16:03:52.811Z,32.44
2019-05-16T16:06:28.965Z,32.01
2019-05-16T16:09:02.438Z,32.08
2019-05-16T16:11:37.478Z,32.34
2019-05-16T16:14:09.011Z,32.44
2019-05-16T16:16:41.636Z,32.06
2019-05-16T16:19:12.547Z,32.15
2019-05-16T16:21:42.825Z,32.01
2019-05-16T16:24:12.993Z,32.22
2019-05-16T16:26:43.230Z,32.57
2019-05-16T16:29:16.716Z,32.33
2019-05-16T16:31:47.664Z,32.63
2019-05-16T16:34:19.245Z,32.71
2019-05-16T16:36:49.434Z,32.19
2019-05-16T16:39:19.653Z,32.54
2019-05-16T16:41:50.321Z,32.52
2019-05-16T16:44:22.782Z,32.86
2019-05-16T16:46:52.986Z,32.75
2019-05-16T16:49:24.258Z,32.91
2019-05-16T16:51:57.220Z,32.92
2019-05-16T16:54:28.514Z,32.57
2019-05-16T16:56:58.843Z,33.28
2019-05-16T16:59:29.343Z,33.42
2019-05-16T17:02:00.026Z,33.65
2019-05-16T17:04:30.242Z,33.17
2019-05-16T17:07:00.411Z,33.17
2019-05-16T17:09:33.927Z,33.11
2019-05-16T17:12:06.865Z,33.86
2019-05-16T17:14:37.495Z,33.86
2019-05-16T17:17:07.659Z,33.94
2019-05-16T17:19:38.165Z,34.20
2019-05-16T17:22:17.032Z,34.24
2019-05-16T17:24:42.502Z,33.32
2019-05-16T17:27:12.688Z,33.99
2019-05-16T17:29:44.488Z,33.26
2019-05-16T17:32:16.680Z,33.65
2019-05-16T17:34:46.942Z,33.41
2019-05-16T17:37:17.277Z,33.31
2019-05-16T17:39:48.809Z,33.34
2019-05-16T17:42:18.985Z,33.39
2019-05-16T17:44:50.177Z,33.38
2019-05-16T17:47:20.409Z,33.27
2019-05-16T17:49:50.589Z,33.62
2019-05-16T17:52:20.873Z,33.96
2019-05-16T17:54:53.393Z,33.83
2019-05-16T17:57:23.955Z,34.46
2019-05-16T17:59:57.392Z,34.17
2019-05-16T18:02:27.706Z,33.20
2019-05-16T18:04:58.299Z,32.88
2019-05-16T18:07:29.048Z,33.36
2019-05-16T18:10:00.532Z,32.50
2019-05-16T18:12:31.027Z,33.05
2019-05-16T18:15:01.340Z,32.93
2019-05-16T18:17:32.182Z,33.02
2019-05-16T18:20:02.391Z,33.46
2019-05-16T18:22:33.462Z,32.91
2019-05-16T18:25:03.859Z,33.11
2019-05-16T18:27:34.529Z,33.27
2019-05-16T18:30:06.045Z,33.39
2019-05-16T18:32:37.707Z,33.49
2019-05-16T18:35:10.388Z,33.18
2019-05-16T18:37:41.443Z,32.81
2019-05-16T18:40:12.045Z,34.57
2019-05-16T18:42:42.285Z,33.08
2019-05-16T18:45:13.458Z,33.22
2019-05-16T18:47:44.101Z,33.66
2019-05-16T18:50:14.604Z,33.28
2019-05-16T18:52:47.134Z,33.97
2019-05-16T18:58:51.327Z,34.63
2019-05-16T19:04:50.279Z,35.55
2019-05-16T19:07:20.484Z,36.51
2019-05-16T19:09:50.632Z,36.59
2019-05-16T19:12:22.230Z,36.68
2019-05-16T19:14:52.398Z,36.45
2019-05-16T19:17:24.882Z,36.76
2019-05-16T19:19:57.021Z,36.88
2019-05-16T19:22:27.842Z,36.29
2019-05-16T19:24:58.088Z,36.21
2019-05-16T19:27:28.304Z,36.67
2019-05-16T19:29:58.473Z,36.77
2019-05-16T19:32:28.737Z,37.39
2019-05-16T19:34:59.348Z,37.32
2019-05-16T19:37:29.600Z,37.43
2019-05-16T19:39:59.946Z,37.25
2019-05-16T19:42:30.367Z,37.00
2019-05-16T19:45:01.076Z,37.55
2019-05-16T19:47:37.002Z,37.88
2019-05-16T19:50:06.443Z,38.07
2019-05-16T19:52:36.725Z,37.66
2019-05-16T19:55:10.758Z,38.41
2019-05-16T19:58:22.538Z,37.99
2019-05-16T20:08:52.590Z,38.40
2019-05-16T20:11:32.547Z,39.98
2019-05-16T20:17:37.747Z,42.88
2019-05-16T20:20:12.847Z,44.43
2019-05-16T20:22:49.860Z,44.96
2019-05-16T20:25:31.594Z,45.53
2019-05-16T20:28:01.663Z,46.46
2019-05-16T20:30:32.277Z,47.68
2019-05-16T20:33:04.014Z,48.52
2019-05-16T20:35:37.535Z,48.00
2019-05-16T20:41:27.257Z,48.06
2019-05-16T20:44:32.324Z,48.60
2019-05-16T20:47:18.130Z,48.84
2019-05-16T20:50:12.710Z,48.88
2019-05-16T20:53:12.342Z,49.45
2019-05-16T20:55:53.520Z,48.42
2019-05-16T20:58:28.388Z,49.26
2019-05-16T21:01:01.479Z,48.66
2019-05-16T21:03:30.570Z,49.31
2019-05-16T21:06:01.219Z,49.53
2019-05-16T21:08:31.532Z,49.63
2019-05-16T21:11:01.770Z,48.14
2019-05-16T21:13:35.814Z,49.90
2019-05-16T21:16:07.186Z,49.50
2019-05-16T21:18:38.150Z,49.77
2019-05-16T21:21:08.349Z,49.84
2019-05-16T21:23:38.505Z,50.09
2019-05-16T21:26:08.710Z,49.55
2019-05-16T21:28:39.336Z,49.23
2019-05-16T21:32:16.515Z,49.28
2019-05-16T21:35:15.637Z,48.77
2019-05-16T21:37:50.596Z,49.55
2019-05-16T21:40:22.333Z,49.43
2019-05-16T21:42:52.821Z,49.34
2019-05-16T21:45:22.970Z,49.80
2019-05-16T21:47:53.109Z,49.61
2019-05-16T21:50:23.836Z,49.14
2019-05-16T21:52:56.319Z,49.24
2019-05-16T21:55:27.293Z,49.29
2019-05-16T21:57:58.867Z,49.34
2019-05-16T22:00:38.504Z,48.89
2019-05-16T22:03:10.340Z,48.83
2019-05-16T22:05:41.098Z,49.67
2019-05-16T22:08:11.969Z,50.10
2019-05-16T22:10:42.778Z,50.46
2019-05-16T22:13:31.151Z,50.46
2019-05-16T22:16:09.103Z,50.95
2019-05-16T22:18:48.645Z,51.31
2019-05-16T22:21:24.072Z,50.58
2019-05-16T22:23:57.105Z,51.11
2019-05-16T22:26:38.809Z,51.22
2019-05-16T22:29:17.022Z,51.09
2019-05-16T22:31:53.202Z,51.72
2019-05-16T22:34:23.395Z,52.20
2019-05-16T22:36:57.270Z,52.16
2019-05-16T22:39:28.325Z,52.00
2019-05-16T22:50:07.436Z,52.02
2019-05-16T22:52:38.323Z,51.81
2019-05-16T22:55:10.882Z,51.97
2019-05-16T22:57:41.107Z,51.65
2019-05-16T23:00:14.218Z,51.79
2019-05-16T23:02:45.462Z,52.08
2019-05-16T23:05:16.849Z,51.89
2019-05-16T23:07:51.297Z,51.99
2019-05-16T23:10:20.236Z,52.02
2019-05-16T23:12:50.388Z,51.90
2019-05-16T23:15:21.393Z,51.71
2019-05-16T23:17:51.554Z,51.93
2019-05-16T23:20:21.722Z,51.94
2019-05-16T23:22:52.511Z,51.74
2019-05-16T23:25:23.279Z,52.41
2019-05-16T23:27:56.658Z,53.12
2019-05-16T23:30:27.364Z,52.36
2019-05-16T23:32:58.207Z,51.60
2019-05-16T23:35:57.542Z,52.77
2019-05-16T23:38:48.863Z,52.47
2019-05-16T23:41:37.032Z,52.20
2019-05-16T23:47:10.944Z,51.50
2019-05-16T23:49:41.216Z,52.89
2019-05-16T23:52:11.392Z,51.84
2019-05-16T23:54:44.452Z,51.71
2019-05-16T23:57:14.602Z,52.80
2019-05-16T23:59:47.206Z,52.56
